Time;durP1;ratioP1;P1;durP2;ratioP2;P2;SDS_P1;SDS_P2;PMS_P1;PMS_P2;Temp;Humidity;BMP_temperature;BMP_pressure;BME280_temperature;BME280_humidity;BME280_pressure;Samples;Min_cycle;Max_cycle;Signal;HPM_P1;HPM_P2
2022/12/25 00:00:01;;;;;;;91.87;42.88;;;;;;;4.88;89.61;100990.64;1628570;87;20914;-80
2022/12/25 00:02:45;;;;;;;90.80;41.70;;;;;;;4.90;89.62;100997.50;1628810;87;21034;-80
2022/12/25 00:05:30;;;;;;;78.52;37.25;;;;;;;4.92;89.65;100998.39;1627728;87;20984;-80
2022/12/25 00:08:15;;;;;;;80.50;37.83;;;;;;;4.94;89.64;101004.81;1627388;87;21120;-80
2022/12/25 00:11:05;;;;;;;81.95;38.38;;;;;;;4.97;89.73;101008.70;1627122;87;21648;-80
2022/12/25 00:13:50;;;;;;;79.35;38.33;;;;;;;4.99;89.72;101009.16;1626947;87;21069;-80
2022/12/25 00:16:35;;;;;;;80.10;37.08;;;;;;;5.03;89.76;100999.81;1622816;87;21549;-80
2022/12/25 00:19:20;;;;;;;80.05;38.08;;;;;;;5.06;89.79;101002.41;1627116;87;21346;-80
2022/12/25 00:22:05;;;;;;;83.85;37.08;;;;;;;5.10;89.75;101007.16;1626012;86;21088;-80
2022/12/25 00:24:50;;;;;;;81.82;38.90;;;;;;;5.11;89.78;101006.31;1626503;87;21080;-80
2022/12/25 00:27:36;;;;;;;90.17;40.12;;;;;;;5.14;89.80;101007.63;1626100;87;21053;-80
2022/12/25 00:30:21;;;;;;;85.25;39.45;;;;;;;5.16;89.81;101005.53;1627552;87;21524;-80
2022/12/25 00:33:06;;;;;;;87.60;39.48;;;;;;;5.18;89.83;101014.10;1626378;86;21064;-80
2022/12/25 00:36:00;;;;;;;88.03;39.63;;;;;;;5.21;89.83;101016.67;1626160;86;21132;-80
2022/12/25 00:38:45;;;;;;;91.30;37.78;;;;;;;5.23;89.87;101023.09;1638236;87;22386;-80
2022/12/25 00:44:34;;;;;;;101.38;41.40;;;;;;;5.25;89.86;101015.00;1641888;87;21086;-80
2022/12/25 00:47:19;;;;;;;91.60;40.92;;;;;;;5.27;89.90;101017.16;1640423;87;21507;-80
2022/12/25 00:50:07;;;;;;;88.25;39.80;;;;;;;5.28;89.92;101010.77;1638545;87;21125;-80
2022/12/25 00:52:52;;;;;;;92.88;39.25;;;;;;;5.30;89.90;101016.78;1643608;86;20998;-81
2022/12/25 00:55:37;;;;;;;85.28;39.48;;;;;;;5.33;89.92;101027.49;1643525;86;20976;-81
2022/12/25 00:58:23;;;;;;;88.78;40.12;;;;;;;5.34;89.93;101025.37;1643838;87;21000;-80
2022/12/25 01:01:10;;;;;;;;;;;;;;;5.35;89.95;101028.80;1645580;87;21319;-80
2022/12/25 01:03:55;;;;;;;82.88;37.23;;;;;;;5.35;90.03;101028.38;1638889;87;20135;-80
2022/12/25 01:06:40;;;;;;;90.62;38.15;;;;;;;5.37;90.01;101030.95;1643341;87;21003;-80
2022/12/25 01:12:28;;;;;;;88.17;37.13;;;;;;;5.40;90.04;101038.69;1643805;86;21043;-80
2022/12/25 01:15:13;;;;;;;81.40;38.53;;;;;;;5.41;90.05;101039.98;1642773;86;21532;-81
2022/12/25 01:17:58;;;;;;;82.17;36.95;;;;;;;5.43;90.03;101038.72;1644986;87;21588;-81
2022/12/25 01:20:43;;;;;;;82.22;36.70;;;;;;;5.44;90.04;101036.17;1644307;87;20944;-81
2022/12/25 01:23:27;;;;;;;80.77;37.63;;;;;;;5.47;90.06;101039.20;1642829;87;21699;-81
2022/12/25 01:26:14;;;;;;;79.45;35.98;;;;;;;5.47;90.05;101032.78;1641612;87;21015;-80
2022/12/25 01:29:01;;;;;;;77.72;36.50;;;;;;;5.48;90.05;101034.51;1623083;86;33279;-81
2022/12/25 01:31:46;;;;;;;71.28;35.28;;;;;;;5.48;90.07;101044.77;1643131;85;21362;-80
2022/12/25 01:34:31;;;;;;;73.20;34.33;;;;;;;5.48;90.08;101043.48;1640531;87;21409;-80
2022/12/25 01:37:16;;;;;;;78.45;34.48;;;;;;;5.50;90.09;101046.50;1642086;87;21111;-80
2022/12/25 01:40:02;;;;;;;73.45;32.23;;;;;;;5.50;90.12;101049.07;1641009;87;21143;-80
2022/12/25 01:42:46;;;;;;;68.07;32.90;;;;;;;5.52;90.11;101057.64;1636950;86;21063;-80
2022/12/25 01:45:41;;;;;;;65.80;30.60;;;;;;;5.53;90.11;101055.94;1633319;87;21107;-81
2022/12/25 01:48:31;;;;;;;68.95;30.68;;;;;;;5.54;90.12;101049.97;1634965;87;21560;-80
2022/12/25 01:51:25;;;;;;;66.07;30.08;;;;;;;5.56;90.13;101055.98;1633555;87;21439;-80
2022/12/25 01:54:26;;;;;;;60.73;29.77;;;;;;;5.56;90.14;101056.84;1634120;87;21663;-80
2022/12/25 01:57:22;;;;;;;63.28;29.50;;;;;;;5.58;90.16;101068.41;1634191;87;21100;-81
2022/12/25 02:00:09;;;;;;;57.83;28.00;;;;;;;5.59;90.17;101074.83;1634193;86;21100;-80
2022/12/25 02:02:54;;;;;;;63.80;29.25;;;;;;;5.59;90.16;101076.11;1634302;86;21534;-81
2022/12/25 02:05:40;;;;;;;61.88;29.65;;;;;;;5.62;90.17;101081.28;1633355;87;21092;-80
2022/12/25 02:08:25;;;;;;;62.30;28.63;;;;;;;5.63;90.16;101081.72;1634470;86;21584;-80
2022/12/25 02:11:55;;;;;;;68.93;29.50;;;;;;;5.64;90.32;101078.73;1633561;86;21634;-81
2022/12/25 02:13:57;;;;;;;64.92;29.32;;;;;;;5.65;90.17;101079.17;1633417;86;21632;-81
2022/12/25 02:16:46;;;;;;;60.60;27.73;;;;;;;5.65;90.16;101075.33;1633936;86;21165;-81
2022/12/25 02:20:04;;;;;;;51.35;26.77;;;;;;;5.67;90.19;101086.47;1635084;87;21053;-81
2022/12/25 02:23:29;;;;;;;62.78;26.17;;;;;;;5.67;90.17;101087.75;1634202;87;21121;-80
2022/12/25 02:26:36;;;;;;;56.95;25.57;;;;;;;5.68;90.19;101093.32;1634017;85;21093;-80
2022/12/25 02:29:53;;;;;;;58.50;26.70;;;;;;;5.69;90.22;101098.03;1634371;85;21680;-81
2022/12/25 02:34:01;;;;;;;55.25;25.08;;;;;;;5.70;90.23;101093.34;1588254;88;21130;-81
2022/12/25 02:35:50;;;;;;;53.83;24.60;;;;;;;5.71;90.21;101095.06;1571941;89;21174;-81
2022/12/25 02:39:56;;;;;;;50.50;24.92;;;;;;;5.72;90.24;101091.20;1633425;87;21589;-80
2022/12/25 02:41:34;;;;;;;57.85;25.92;;;;;;;5.72;90.23;101092.48;1599881;86;21128;-80
2022/12/25 03:12:33;;;;;;;56.92;24.57;;;;;;;5.78;90.31;101098.10;1607347;88;21160;-80
2022/12/25 03:18:27;;;;;;;39.25;21.95;;;;;;;5.79;90.32;101097.26;1607371;89;21434;-81
2022/12/25 03:27:19;;;;;;;50.75;22.60;;;;;;;5.80;90.39;101103.69;1606952;89;21124;-80
2022/12/25 03:33:36;;;;;;;48.23;20.72;;;;;;;5.81;90.35;101104.13;1602371;87;21140;-80
2022/12/25 03:36:29;;;;;;;44.30;21.52;;;;;;;5.82;90.36;101103.28;1548100;88;5001194;-80
2022/12/25 04:37:22;;;;;;;58.87;27.85;;;;;;;5.72;90.57;101128.85;1653468;86;20951;-80
2022/12/25 04:40:08;;;;;;;56.88;27.27;;;;;;;5.69;90.51;101128.39;1652198;85;20980;-81
2022/12/25 04:42:53;;;;;;;56.73;27.62;;;;;;;5.65;90.52;101135.61;1646240;86;21402;-80
2022/12/25 04:45:38;;;;;;;53.40;26.48;;;;;;;5.63;90.63;101142.01;1629272;87;21490;-80
2022/12/25 04:48:25;;;;;;;53.28;25.90;;;;;;;5.64;90.65;101135.17;1628829;87;20992;-81
2022/12/25 04:51:17;;;;;;;46.95;25.02;;;;;;;5.65;90.70;101136.89;1627425;87;21409;-80
2022/12/25 04:54:02;;;;;;;45.12;23.12;;;;;;;5.67;90.68;101135.21;1627273;87;21020;-80
2022/12/25 04:56:46;;;;;;;47.65;22.55;;;;;;;5.66;90.66;101147.59;1629083;86;21503;-80
2022/12/25 04:59:31;;;;;;;36.23;21.85;;;;;;;5.66;90.70;101146.31;1628847;87;20965;-80
2022/12/25 05:02:16;;;;;;;36.93;21.12;;;;;;;5.67;90.73;101150.60;1629196;86;20980;-80
2022/12/25 05:05:02;;;;;;;37.17;19.35;;;;;;;5.69;90.74;101144.21;1628187;86;21063;-81
2022/12/25 05:07:46;;;;;;;33.45;18.65;;;;;;;5.71;90.76;101152.79;1629933;86;20980;-81
2022/12/25 05:10:31;;;;;;;31.57;18.27;;;;;;;5.71;90.76;101155.35;1628793;87;20972;-81
2022/12/25 05:13:17;;;;;;;36.10;18.27;;;;;;;5.73;90.78;101154.50;1628947;87;21553;-80
2022/12/25 05:16:06;;;;;;;24.98;16.42;;;;;;;5.74;90.75;101156.22;1627427;87;21560;-81
2022/12/25 05:18:51;;;;;;;37.80;17.45;;;;;;;5.74;90.77;101154.94;1632092;86;21473;-80
2022/12/25 05:21:36;;;;;;;30.77;19.52;;;;;;;5.75;90.80;101153.23;1630207;87;20956;-81
2022/12/25 05:24:25;;;;;;;33.98;18.70;;;;;;;5.77;90.82;101156.26;1629033;87;21005;-80
2022/12/25 05:27:10;;;;;;;34.05;19.70;;;;;;;5.79;90.82;101154.99;1627200;87;21370;-80
2022/12/25 05:29:55;;;;;;;36.35;19.60;;;;;;;5.78;90.81;101158.41;1626230;87;21118;-80
2022/12/25 05:32:40;;;;;;;34.55;19.30;;;;;;;5.81;90.85;101166.14;1623090;86;21600;-80
2022/12/25 05:35:26;;;;;;;34.20;19.65;;;;;;;5.81;90.82;101169.56;1615967;87;21140;-81
2022/12/25 05:38:11;;;;;;;40.28;21.82;;;;;;;5.81;90.81;101178.97;1628183;86;21100;-80
2022/12/25 05:40:56;;;;;;;44.27;22.37;;;;;;;5.82;90.81;101175.56;1626160;87;21128;-80
2022/12/25 05:43:41;;;;;;;48.40;23.67;;;;;;;5.82;90.82;101188.39;1624613;87;21063;-80
2022/12/25 05:46:26;;;;;;;44.30;22.27;;;;;;;5.83;90.89;101188.41;1642310;87;21142;-81
2022/12/25 05:49:11;;;;;;;39.25;22.00;;;;;;;5.84;90.90;101184.14;1629662;86;21136;-80
2022/12/25 05:51:56;;;;;;;44.88;22.07;;;;;;;5.85;90.89;101193.14;1621837;87;21712;-80
2022/12/25 05:54:41;;;;;;;42.25;21.33;;;;;;;5.86;90.92;101195.29;1627558;86;21161;-80
2022/12/25 05:57:31;;;;;;;40.12;20.17;;;;;;;5.87;90.91;101204.71;1609167;87;21077;-80
2022/12/25 06:00:17;;;;;;;37.83;20.40;;;;;;;5.86;90.92;101214.12;1627093;87;21577;-80
2022/12/25 06:03:03;;;;;;;40.08;18.75;;;;;;;5.88;90.94;101217.56;1637763;87;20984;-80
2022/12/25 06:05:48;;;;;;;40.53;20.63;;;;;;;5.89;90.96;101221.03;1626873;87;21367;-80
2022/12/25 06:08:33;;;;;;;38.20;19.10;;;;;;;5.91;90.99;101227.04;1626800;87;21638;-80
2022/12/25 06:11:18;;;;;;;38.83;19.03;;;;;;;5.92;91.01;101234.77;1621522;87;21122;-80
2022/12/25 06:14:03;;;;;;;43.40;19.60;;;;;;;5.93;91.01;101237.77;1627259;87;21401;-80
2022/12/25 06:16:52;;;;;;;42.65;20.80;;;;;;;5.97;91.01;101238.67;1629025;86;21088;-80
2022/12/25 06:19:38;;;;;;;36.98;19.00;;;;;;;5.98;91.03;101244.24;1626510;86;21323;-80
2022/12/25 06:22:22;;;;;;;39.70;19.87;;;;;;;6.00;91.03;101237.84;1620421;87;21140;-80
2022/12/25 06:25:09;;;;;;;38.02;18.75;;;;;;;6.02;91.06;101241.30;1627575;86;21137;-80
2022/12/25 06:27:54;;;;;;;36.48;18.80;;;;;;;6.03;91.04;101246.87;1627348;86;21156;-80
2022/12/25 06:30:39;;;;;;;43.13;19.87;;;;;;;6.04;91.04;101247.31;1625212;87;21097;-81
2022/12/25 06:33:24;;;;;;;39.48;17.50;;;;;;;6.05;91.06;101244.77;1617205;86;21609;-80
2022/12/25 06:36:13;;;;;;;35.35;18.77;;;;;;;6.06;91.08;101261.03;1638441;86;22106;-80
2022/12/25 06:39:01;;;;;;;43.17;17.40;;;;;;;6.08;91.11;101269.19;1625603;87;21088;-80
2022/12/25 06:41:47;;;;;;;32.80;17.17;;;;;;;6.10;91.11;101280.34;1633464;86;21660;-80
2022/12/25 06:44:32;;;;;;;33.77;17.27;;;;;;;6.11;91.12;101286.34;1643421;85;21466;-81
2022/12/25 06:47:17;;;;;;;32.53;16.73;;;;;;;6.12;91.13;101283.80;1636929;86;22291;-80
2022/12/25 06:50:02;;;;;;;40.33;17.25;;;;;;;6.13;91.14;101285.94;1652969;86;21589;-80
2022/12/25 06:52:47;;;;;;;31.42;16.35;;;;;;;6.14;91.18;101293.66;1652388;86;21096;-80
2022/12/25 06:55:32;;;;;;;35.78;16.52;;;;;;;6.16;91.17;101294.55;1638376;86;21447;-80
2022/12/25 06:58:17;;;;;;;32.08;16.55;;;;;;;6.19;91.16;101290.73;1645525;85;21127;-80
2022/12/25 07:01:14;;;;;;;38.00;16.50;;;;;;;6.19;91.17;101289.45;1651636;85;22048;-81
2022/12/25 07:04:05;;;;;;;32.73;14.85;;;;;;;6.21;91.18;101301.03;1652930;85;20951;-81
2022/12/25 07:06:50;;;;;;;29.45;16.27;;;;;;;6.23;91.19;101298.05;1651274;86;20978;-81
2022/12/25 07:09:37;;;;;;;32.75;15.45;;;;;;;6.23;91.19;101291.64;1614713;86;21492;-81
2022/12/25 07:12:23;;;;;;;;;;;;;;;6.24;91.22;101290.34;1655944;86;21483;-80
2022/12/25 07:15:09;;;;;;;22.67;13.43;;;;;;;6.26;91.27;101291.64;1651428;86;20635;-80
2022/12/25 07:17:54;;;;;;;29.07;14.93;;;;;;;6.27;91.23;101292.95;1653041;86;21438;-80
2022/12/25 07:20:39;;;;;;;31.73;15.20;;;;;;;6.29;91.26;101291.68;1652562;86;21095;-80
2022/12/25 07:23:25;;;;;;;29.57;13.83;;;;;;;6.30;91.26;101294.69;1644330;86;21151;-80
2022/12/25 07:26:11;;;;;;;26.35;13.75;;;;;;;6.31;91.26;101292.56;1649599;86;28182;-80
2022/12/25 07:28:57;;;;;;;23.87;13.95;;;;;;;6.32;91.25;101295.57;1654429;86;20951;-81
2022/12/25 07:31:41;;;;;;;23.67;13.05;;;;;;;6.34;91.27;101293.02;1623791;86;21142;-80
2022/12/25 07:34:26;;;;;;;20.65;12.18;;;;;;;6.34;91.28;101295.59;1650068;86;21030;-80
2022/12/25 07:37:12;;;;;;;23.57;12.60;;;;;;;6.35;91.26;101301.17;1646691;86;21134;-80
2022/12/25 07:39:57;;;;;;;17.87;11.40;;;;;;;6.36;91.28;101293.48;1651702;86;21019;-80
2022/12/25 07:42:42;;;;;;;18.70;11.60;;;;;;;6.36;91.27;101293.48;1650873;85;21066;-80
2022/12/25 07:45:27;;;;;;;14.38;9.83;;;;;;;6.37;91.26;101300.34;1636793;86;21089;-80
2022/12/25 07:48:12;;;;;;;12.80;9.25;;;;;;;6.37;91.20;101306.77;1645314;86;21076;-80
2022/12/25 07:51:05;;;;;;;16.35;9.85;;;;;;;6.35;91.24;101299.46;1632814;87;22433;-80
2022/12/25 07:53:50;;;;;;;12.65;9.53;;;;;;;6.36;91.26;101291.34;1604106;87;21070;-80
2022/12/25 07:56:35;;;;;;;18.27;10.23;;;;;;;6.37;91.27;101297.77;1634429;86;21176;-80
2022/12/25 07:59:20;;;;;;;14.68;9.28;;;;;;;6.38;91.29;101297.35;1617270;87;21558;-80
2022/12/25 08:02:05;;;;;;;15.28;9.78;;;;;;;6.39;91.28;101306.78;1631844;87;21545;-80
2022/12/25 08:04:51;;;;;;;17.82;9.75;;;;;;;6.39;91.27;101309.35;1633243;87;21160;-80
2022/12/25 08:07:36;;;;;;;11.73;8.43;;;;;;;6.39;91.29;101316.64;1615269;87;21058;-80
2022/12/25 08:10:21;;;;;;;14.25;9.78;;;;;;;6.40;91.29;101324.78;1632387;87;21533;-80
2022/12/25 08:13:06;;;;;;;14.93;10.00;;;;;;;6.41;91.31;101325.64;1630394;86;21101;-80
2022/12/25 08:15:58;;;;;;;17.92;9.95;;;;;;;6.42;91.33;101332.09;1630466;87;21093;-81
2022/12/25 08:18:43;;;;;;;15.05;9.43;;;;;;;6.41;91.30;101326.93;1633141;87;20965;-81
2022/12/25 08:21:28;;;;;;;12.47;9.08;;;;;;;6.42;91.34;101338.51;1632250;86;20993;-81
2022/12/25 08:24:12;;;;;;;15.35;10.20;;;;;;;6.43;91.31;101341.94;1632374;86;20988;-81
2022/12/25 08:26:57;;;;;;;14.40;10.80;;;;;;;6.44;91.33;101339.39;1632139;87;20949;-81
2022/12/25 08:29:45;;;;;;;16.35;10.25;;;;;;;6.44;91.37;101334.67;1631775;86;21369;-81
2022/12/25 08:32:34;;;;;;;14.83;10.30;;;;;;;6.45;91.36;101337.27;1646012;85;21029;-81
2022/12/25 08:35:19;;;;;;;17.32;10.03;;;;;;;6.45;91.33;101342.82;1633447;87;20957;-81
2022/12/25 08:38:04;;;;;;;15.20;9.65;;;;;;;6.45;91.36;101342.41;1618033;87;20965;-81
2022/12/25 08:40:49;;;;;;;14.80;8.73;;;;;;;6.47;91.38;101344.56;1634731;85;20957;-81
2022/12/25 08:43:34;;;;;;;15.88;9.23;;;;;;;6.48;91.37;101341.16;1618195;88;21025;-80
2022/12/25 08:46:19;;;;;;;19.62;10.78;;;;;;;6.50;91.40;101345.89;1609312;88;21616;-80
2022/12/25 08:49:04;;;;;;;15.53;9.45;;;;;;;6.52;91.39;101350.62;1605501;86;21072;-81
2022/12/25 08:51:49;;;;;;;19.12;10.40;;;;;;;6.55;91.41;101351.95;1632790;86;21112;-80
2022/12/25 08:54:35;;;;;;;16.30;9.80;;;;;;;6.57;91.42;101358.39;1631845;86;21609;-80
2022/12/25 08:57:19;;;;;;;16.82;10.10;;;;;;;6.59;91.41;101357.98;1633285;86;21468;-80
2022/12/25 09:00:06;;;;;;;13.13;9.68;;;;;;;6.60;91.41;101358.43;1631676;86;21149;-81
2022/12/25 09:02:51;;;;;;;;;;;;;;;6.61;91.43;101364.88;1634662;87;21535;-81
2022/12/25 09:05:36;;;;;;;22.62;11.00;;;;;;;6.63;91.46;101369.61;1630529;87;20210;-81
2022/12/25 09:08:22;;;;;;;17.57;10.90;;;;;;;6.66;91.45;101361.08;1630274;87;21144;-80
2022/12/25 09:11:13;;;;;;;17.60;10.20;;;;;;;6.66;91.45;101356.36;1631469;87;21179;-80
2022/12/25 09:13:58;;;;;;;12.88;8.65;;;;;;;6.70;91.47;101356.84;1631265;87;21077;-80
2022/12/25 09:16:43;;;;;;;13.72;7.95;;;;;;;6.70;91.42;101355.55;1614816;86;21162;-80
2022/12/25 09:19:28;;;;;;;13.00;8.13;;;;;;;6.71;91.45;101356.85;1628722;87;21057;-80
2022/12/25 09:22:13;;;;;;;11.75;7.60;;;;;;;6.73;91.45;101364.16;1631122;86;21112;-80
2022/12/25 09:24:58;;;;;;;10.25;7.40;;;;;;;6.74;91.41;101363.31;1631983;87;21112;-80
2022/12/25 09:27:43;;;;;;;15.95;8.08;;;;;;;6.74;91.38;101365.02;1631187;87;21503;-81
2022/12/25 09:30:28;;;;;;;17.07;7.95;;;;;;;6.74;91.37;101362.45;1632155;87;21068;-81
2022/12/25 09:33:13;;;;;;;15.23;8.08;;;;;;;6.75;91.41;101362.47;1630974;86;21108;-80
2022/12/25 09:36:01;;;;;;;12.88;7.65;;;;;;;6.76;91.46;101361.59;1601840;87;592636;-80
2022/12/25 09:38:46;;;;;;;11.33;8.38;;;;;;;6.80;91.50;101365.92;1603911;88;21091;-80
2022/12/25 09:41:53;;;;;;;15.63;8.88;;;;;;;6.81;91.46;101368.07;1592419;89;21074;-80
2022/12/25 09:44:43;;;;;;;15.03;8.90;;;;;;;6.83;91.46;101365.09;1636766;85;21076;-80
2022/12/25 09:47:33;;;;;;;14.80;9.05;;;;;;;6.83;91.43;101364.67;1644498;86;21441;-81
2022/12/25 09:50:38;;;;;;;17.02;9.08;;;;;;;6.83;91.40;101364.67;1615410;88;20986;-81
2022/12/25 09:53:27;;;;;;;15.98;9.50;;;;;;;6.84;91.40;101364.25;1610871;86;21045;-81
2022/12/25 09:56:25;;;;;;;18.67;10.25;;;;;;;6.84;91.41;101370.25;1618663;87;21455;-81
2022/12/25 09:59:23;;;;;;;16.82;9.85;;;;;;;6.85;91.44;101370.70;1608412;88;21557;-81
2022/12/25 10:02:25;;;;;;;20.23;10.85;;;;;;;6.87;91.47;101372.00;1614248;88;20927;-81
2022/12/25 10:05:30;;;;;;;19.42;11.03;;;;;;;6.89;91.48;101369.02;1601169;88;20975;-81
2022/12/25 10:08:38;;;;;;;17.27;10.93;;;;;;;6.91;91.45;101364.34;1601035;89;21002;-80
2022/12/25 10:11:40;;;;;;;22.37;12.43;;;;;;;6.92;91.43;101363.91;1601295;87;21425;-81
2022/12/25 10:15:04;;;;;;;22.32;11.00;;;;;;;6.91;91.41;101360.91;1601098;87;21086;-80
2022/12/25 10:18:18;;;;;;;19.45;11.85;;;;;;;6.91;91.38;101350.62;1615451;88;20990;-80
2022/12/25 10:21:04;;;;;;;17.65;11.70;;;;;;;6.94;91.39;101354.51;1601076;88;21435;-80
2022/12/25 10:24:21;;;;;;;21.50;10.85;;;;;;;6.95;91.40;101350.67;1601333;89;21877;-81
2022/12/25 10:27:31;;;;;;;17.30;11.83;;;;;;;6.96;91.37;101347.25;1564807;89;21624;-81
2022/12/25 10:30:21;;;;;;;24.95;12.80;;;;;;;6.97;91.39;101345.13;1598004;88;20942;-81
2022/12/25 10:33:06;;;;;;;24.77;13.20;;;;;;;7.01;91.44;101344.73;1600599;87;21582;-80
2022/12/25 10:35:51;;;;;;;20.05;13.65;;;;;;;7.04;91.42;101347.76;1645333;86;20946;-80
2022/12/25 10:38:36;;;;;;;29.02;14.18;;;;;;;7.05;91.40;101346.91;1645658;86;20963;-81
2022/12/25 10:41:44;;;;;;;17.42;13.13;;;;;;;7.04;91.34;101350.33;1646110;86;21494;-80
2022/12/25 10:44:29;;;;;;;21.70;13.60;;;;;;;7.04;91.32;101352.48;1645360;85;20996;-80
2022/12/25 10:47:19;;;;;;;18.95;13.20;;;;;;;7.05;91.33;101342.63;1646062;86;20988;-81
2022/12/25 10:50:20;;;;;;;21.52;12.05;;;;;;;7.04;91.32;101338.34;1646297;86;20960;-81
2022/12/25 10:53:08;;;;;;;23.60;12.35;;;;;;;7.05;91.33;101329.77;1627804;86;21576;-81
2022/12/25 10:56:03;;;;;;;23.12;11.38;;;;;;;7.05;91.26;101326.34;1646647;86;21111;-80
2022/12/25 10:58:48;;;;;;;23.55;11.78;;;;;;;7.05;91.30;101323.34;1643293;86;21127;-80
2022/12/25 11:01:33;;;;;;;19.17;11.78;;;;;;;7.06;91.30;101322.50;1644970;86;21100;-80
2022/12/25 11:04:23;;;;;;;19.87;13.17;;;;;;;7.07;91.31;101320.36;1645176;86;21098;-80
2022/12/25 11:07:22;;;;;;;24.55;13.03;;;;;;;7.07;91.19;101322.07;1645276;86;21107;-81
2022/12/25 11:10:21;;;;;;;18.45;12.07;;;;;;;7.05;91.20;101325.91;1644803;86;21099;-81
2022/12/25 11:13:18;;;;;;;23.25;11.90;;;;;;;7.06;91.22;101324.20;1644428;86;21098;-80
2022/12/25 11:16:13;;;;;;;26.65;12.63;;;;;;;7.05;91.22;101324.63;1644575;85;21082;-80
2022/12/25 11:18:59;;;;;;;19.23;12.00;;;;;;;7.06;91.25;101331.92;1644148;86;21158;-80
2022/12/25 11:21:51;;;;;;;19.48;11.53;;;;;;;7.07;91.27;101346.08;1645234;85;21147;-80
2022/12/25 11:24:36;;;;;;;15.58;9.65;;;;;;;7.08;91.27;101342.66;1645286;86;21075;-80
2022/12/25 11:27:28;;;;;;;23.07;10.63;;;;;;;7.04;91.12;101336.19;1644107;85;21075;-80
2022/12/25 11:30:15;;;;;;;14.53;9.95;;;;;;;7.02;91.15;101343.88;1645854;86;20996;-80
2022/12/25 11:33:07;;;;;;;15.85;9.80;;;;;;;7.02;91.17;101348.16;1646509;85;21617;-80
2022/12/25 11:35:55;;;;;;;18.10;9.53;;;;;;;7.03;91.16;101343.45;1645704;86;20988;-80
2022/12/25 11:38:39;;;;;;;11.10;8.83;;;;;;;7.01;91.14;101338.30;1646922;85;21783;-80
2022/12/25 11:41:30;;;;;;;13.65;9.70;;;;;;;7.02;91.14;101340.03;1640661;86;21021;-80
2022/12/25 11:44:28;;;;;;;21.50;10.95;;;;;;;7.00;91.10;101341.72;1646823;85;21473;-81
2022/12/25 11:47:23;;;;;;;20.48;11.18;;;;;;;7.01;91.13;101354.16;1646275;86;21425;-80
2022/12/25 11:50:33;;;;;;;17.82;10.28;;;;;;;6.99;91.05;101347.70;1646390;85;21001;-80
2022/12/25 11:53:32;;;;;;;17.70;12.00;;;;;;;6.97;91.07;101337.83;1644042;85;21540;-80
2022/12/25 11:56:29;;;;;;;22.80;14.07;;;;;;;6.95;91.03;101333.95;1637060;86;21659;-80
2022/12/25 11:59:26;;;;;;;23.50;14.78;;;;;;;6.94;91.05;101337.80;1640192;86;21094;-80
2022/12/25 12:02:35;;;;;;;;;;;;;;;6.94;91.06;101338.66;1648047;86;21138;-80
2022/12/25 12:05:40;;;;;;;23.07;14.85;;;;;;;6.92;91.00;101333.92;1508017;86;5001160;-80
2022/12/25 12:08:25;;;;;;;25.17;15.25;;;;;;;6.91;91.04;101330.05;1621402;86;21080;-80
2022/12/25 12:11:39;;;;;;;27.98;16.82;;;;;;;6.91;91.07;101333.48;1651918;85;21659;-81
2022/12/25 12:14:46;;;;;;;27.10;16.20;;;;;;;6.91;91.06;101331.34;1642026;86;21061;-80
2022/12/25 12:17:31;;;;;;;25.00;14.65;;;;;;;6.91;91.05;101331.34;1619789;88;21098;-80
2022/12/25 12:20:30;;;;;;;24.85;13.58;;;;;;;6.90;91.06;101329.19;1652783;86;21745;-80
2022/12/25 12:23:16;;;;;;;29.67;14.38;;;;;;;6.87;91.01;101330.87;1625980;85;21733;-80
2022/12/25 12:26:02;;;;;;;27.82;15.40;;;;;;;6.84;90.95;101334.69;1652278;86;21584;-81
2022/12/25 12:28:48;;;;;;;;;;;;;;;6.82;90.97;101332.10;1651737;86;21610;-80
2022/12/25 12:31:43;;;;;;;;;;;;;;;6.83;90.97;101327.83;1653900;85;20186;-80
2022/12/25 12:34:41;;;;;;;25.68;12.80;;;;;;;6.82;90.93;101323.53;1657012;85;20615;-80
2022/12/25 12:37:31;;;;;;;32.67;15.32;;;;;;;6.82;90.94;101327.38;1637840;86;21069;-80
2022/12/25 12:40:30;;;;;;;22.20;13.72;;;;;;;6.81;90.98;101327.80;1645486;86;21546;-80
2022/12/25 12:43:45;;;;;;;24.35;14.23;;;;;;;6.81;91.00;101325.66;1635025;86;21110;-80
2022/12/25 12:46:36;;;;;;;26.93;15.20;;;;;;;6.83;91.02;101318.41;1651189;86;21554;-81
2022/12/25 12:49:25;;;;;;;26.68;14.83;;;;;;;6.85;91.05;101309.00;1632793;86;21114;-80
2022/12/25 12:52:34;;;;;;;26.05;13.50;;;;;;;6.87;91.05;101297.02;1649564;86;22215;-80
2022/12/25 12:55:32;;;;;;;27.10;14.60;;;;;;;6.88;91.01;101294.89;1626254;86;21091;-81
2022/12/25 12:58:34;;;;;;;24.87;14.03;;;;;;;6.90;91.02;101290.63;1652169;86;21138;-81
2022/12/25 13:01:40;;;;;;;28.20;14.15;;;;;;;6.90;90.93;101287.20;1648916;86;21572;-80
2022/12/25 13:04:36;;;;;;;19.65;11.90;;;;;;;6.89;90.91;101285.47;1627756;87;21103;-80
2022/12/25 13:07:42;;;;;;;;;;;;;;;6.88;90.95;101279.47;1623333;85;21126;-80
2022/12/25 13:10:34;;;;;;;19.90;12.45;;;;;;;6.88;90.93;101277.32;1662219;85;20583;-80
2022/12/25 13:13:27;;;;;;;31.00;14.25;;;;;;;6.90;90.98;101275.62;1618375;87;21046;-80
2022/12/25 13:16:35;;;;;;;25.10;14.18;;;;;;;6.91;90.97;101277.35;1640870;87;21121;-81
2022/12/25 13:19:24;;;;;;;26.50;14.83;;;;;;;6.92;90.98;101277.79;1641891;85;21073;-80
2022/12/25 13:22:26;;;;;;;29.85;13.10;;;;;;;6.90;90.92;101275.20;1669351;85;21095;-80
2022/12/25 13:25:19;;;;;;;31.02;14.05;;;;;;;6.89;90.92;101273.91;1633107;85;21429;-81
2022/12/25 13:28:04;;;;;;;26.37;12.47;;;;;;;6.87;90.88;101276.45;1665559;85;21127;-80
2022/12/25 13:30:49;;;;;;;30.20;11.93;;;;;;;6.87;90.89;101270.45;1665888;85;21121;-81
2022/12/25 13:33:34;;;;;;;24.98;13.15;;;;;;;6.84;90.88;101265.28;1663565;84;21523;-81
2022/12/25 13:36:19;;;;;;;29.15;12.73;;;;;;;6.84;90.91;101271.28;1642178;87;21038;-81
2022/12/25 13:39:12;;;;;;;28.00;14.25;;;;;;;6.85;90.94;101278.16;1651790;85;21038;-81
2022/12/25 13:42:04;;;;;;;29.42;15.08;;;;;;;6.84;90.93;101281.57;1642762;85;21110;-80
2022/12/25 13:44:54;;;;;;;28.27;14.68;;;;;;;6.85;90.91;101283.30;1667665;85;21826;-80
2022/12/25 13:47:42;;;;;;;31.07;14.87;;;;;;;6.85;90.92;101294.00;1649424;84;21127;-81
2022/12/25 13:50:31;;;;;;;37.33;18.48;;;;;;;6.85;90.93;101284.58;1610603;87;21063;-80
2022/12/25 13:53:17;;;;;;;36.45;17.95;;;;;;;6.84;90.87;101286.71;1614192;87;21067;-80
2022/12/25 13:56:02;;;;;;;34.65;17.65;;;;;;;6.83;90.90;101284.13;1615927;87;21501;-80
2022/12/25 13:58:47;;;;;;;32.13;17.35;;;;;;;6.82;90.88;101283.27;1614186;87;21063;-80
2022/12/25 14:01:32;;;;;;;45.03;19.48;;;;;;;6.80;90.85;101275.09;1614781;87;21151;-81
2022/12/25 14:04:21;;;;;;;35.80;19.70;;;;;;;6.77;90.86;101275.92;1615274;86;21083;-80
2022/12/25 14:07:11;;;;;;;36.88;19.23;;;;;;;6.75;90.82;101263.94;1615948;86;21031;-81
2022/12/25 14:09:59;;;;;;;37.15;19.75;;;;;;;6.70;90.79;101256.61;1644550;85;21048;-80
2022/12/25 14:12:48;;;;;;;39.15;20.97;;;;;;;6.64;90.78;101253.13;1616298;86;21104;-80
2022/12/25 14:15:35;;;;;;;38.25;20.85;;;;;;;6.60;90.86;101256.52;1614539;87;21618;-81
2022/12/25 14:18:23;;;;;;;43.98;22.13;;;;;;;6.59;90.84;101253.92;1626486;86;21081;-80
2022/12/25 14:21:15;;;;;;;44.67;20.68;;;;;;;6.55;90.82;101256.02;1626460;87;21443;-80
2022/12/25 14:24:00;;;;;;;49.33;22.07;;;;;;;6.52;90.85;101267.13;1618629;87;21129;-80
2022/12/25 14:26:46;;;;;;;40.15;20.35;;;;;;;6.52;90.95;101267.55;1626784;87;21146;-80
2022/12/25 14:29:42;;;;;;;48.13;24.82;;;;;;;6.52;90.94;101274.84;1638545;86;21083;-80
2022/12/25 14:32:33;;;;;;;47.40;23.02;;;;;;;6.51;90.89;101272.25;1614852;87;21092;-81
2022/12/25 14:35:19;;;;;;;54.70;23.73;;;;;;;6.51;90.87;101274.81;1611218;87;21099;-80
2022/12/25 14:38:05;;;;;;;;;;;;;;;6.48;90.84;101289.77;1599929;88;21078;-80
2022/12/25 14:41:03;;;;;;;41.33;19.52;;;;;;;6.45;90.89;101297.45;1614388;88;20132;-80
2022/12/25 14:43:54;;;;;;;40.95;19.00;;;;;;;6.45;90.93;101297.87;1608857;88;21565;-80
2022/12/25 14:46:38;;;;;;;44.40;20.55;;;;;;;6.45;90.94;101301.72;1613902;88;21718;-80